Time;durP1;ratioP1;P1;durP2;ratioP2;P2;SDS_P1;SDS_P2;PMS_P1;PMS_P2;Temp;Humidity;BMP_temperature;BMP_pressure;BME280_temperature;BME280_humidity;BME280_pressure;Samples;Min_cycle;Max_cycle;Signal;HPM_P1;HPM_P2
2022/12/16 00:01:15;;;;;;;44.40;23.70;;;;;;;-2.85;98.00;101188.50;4962587;28;20452;-74
2022/12/16 00:03:42;;;;;;;41.00;24.03;;;;;;;-2.79;98.28;101195.63;4948795;28;20448;-73
2022/12/16 00:06:08;;;;;;;42.60;24.87;;;;;;;-2.77;98.06;101196.59;4942896;28;20252;-73
2022/12/16 00:08:37;;;;;;;38.43;23.70;;;;;;;-2.76;98.22;101194.22;4949020;28;20476;-73
2022/12/16 00:11:03;;;;;;;41.77;24.97;;;;;;;-2.74;98.00;101197.75;4957866;28;20194;-73
2022/12/16 00:13:30;;;;;;;44.77;26.03;;;;;;;-2.72;98.08;101192.84;4948552;28;20535;-73
2022/12/16 00:15:57;;;;;;;39.00;24.30;;;;;;;-2.71;97.79;101200.47;4939121;28;20452;-74
2022/12/16 00:18:22;;;;;;;45.80;25.23;;;;;;;-2.69;98.28;101200.59;4923747;28;20502;-74
2022/12/16 00:20:50;;;;;;;43.10;25.60;;;;;;;-2.68;98.45;101208.22;4964019;28;20925;-74
2022/12/16 00:23:16;;;;;;;49.03;28.33;;;;;;;-2.67;97.75;101194.09;4944181;28;20199;-71
2022/12/16 00:25:43;;;;;;;42.87;25.23;;;;;;;-2.63;98.36;101203.56;4946653;28;20449;-74
2022/12/16 00:28:09;;;;;;;45.37;25.97;;;;;;;-2.57;98.09;101204.03;4947044;28;20221;-75
2022/12/16 00:30:36;;;;;;;43.40;25.60;;;;;;;-2.55;98.30;101203.41;4966899;28;20449;-74
2022/12/16 00:33:01;;;;;;;46.67;25.33;;;;;;;-2.56;98.13;101205.78;4944435;28;20512;-70
2022/12/16 00:35:26;;;;;;;44.87;25.23;;;;;;;-2.53;97.97;101208.53;4946545;28;20221;-72
2022/12/16 00:37:52;;;;;;;45.50;26.00;;;;;;;-2.52;98.14;101208.63;4945521;28;20239;-71
2022/12/16 00:40:18;;;;;;;43.13;25.13;;;;;;;-2.52;98.50;101216.13;4948845;28;20575;-72
2022/12/16 00:42:43;;;;;;;41.90;24.03;;;;;;;-2.52;98.38;101212.78;4945848;28;20761;-70
2022/12/16 00:45:09;;;;;;;47.80;26.77;;;;;;;-2.47;98.63;101216.50;4945900;28;20480;-72
2022/12/16 00:47:34;;;;;;;39.67;24.10;;;;;;;-2.45;97.98;101217.47;4950739;28;20255;-72
2022/12/16 00:50:00;;;;;;;47.70;26.37;;;;;;;-2.44;98.26;101212.59;4951841;28;20190;-74
2022/12/16 00:52:26;;;;;;;38.20;24.90;;;;;;;-2.42;97.91;101215.22;4947752;28;20197;-71
2022/12/16 00:54:51;;;;;;;46.67;26.50;;;;;;;-2.42;98.22;101222.75;4952776;28;20245;-72
2022/12/16 00:57:17;;;;;;;40.27;24.93;;;;;;;-2.42;97.74;101216.09;4949176;28;20295;-74
2022/12/16 00:59:42;;;;;;;44.27;26.30;;;;;;;-2.37;98.03;101214.81;4942997;28;20193;-73
2022/12/16 01:02:09;;;;;;;44.53;25.97;;;;;;;-2.37;97.77;101216.44;4964781;28;20209;-73
2022/12/16 01:04:35;;;;;;;43.20;25.83;;;;;;;-2.37;97.57;101219.84;4946029;28;20193;-72
2022/12/16 01:07:01;;;;;;;43.13;25.13;;;;;;;-2.37;97.89;101216.44;4945654;28;20260;-70
2022/12/16 01:09:26;;;;;;;44.63;25.23;;;;;;;-2.32;97.40;101218.53;4938950;28;20193;-72
2022/12/16 01:11:51;;;;;;;43.60;25.67;;;;;;;-2.31;97.79;101217.78;4951334;28;20189;-73
2022/12/16 01:14:18;;;;;;;39.87;24.67;;;;;;;-2.29;97.71;101223.75;4943934;28;20213;-72
2022/12/16 01:16:44;;;;;;;44.90;25.50;;;;;;;-2.27;97.32;101227.28;4967287;28;20686;-71
2022/12/16 01:19:09;;;;;;;48.00;25.27;;;;;;;-2.27;97.33;101232.28;4943648;28;20217;-72
2022/12/16 01:21:36;;;;;;;40.37;24.20;;;;;;;-2.29;97.87;101237.94;4950484;28;20233;-72
2022/12/16 01:24:01;;;;;;;40.60;24.17;;;;;;;-2.27;97.47;101243.94;4944099;28;20965;-72
2022/12/16 01:26:27;;;;;;;41.90;25.57;;;;;;;-2.26;97.60;101235.69;4947324;28;20448;-72
2022/12/16 01:28:52;;;;;;;44.00;25.17;;;;;;;-2.27;97.51;101238.94;4950138;28;20735;-72
2022/12/16 01:31:19;;;;;;;43.30;24.80;;;;;;;-2.28;96.96;101253.13;4949942;28;20643;-72
2022/12/16 01:33:45;;;;;;;42.20;24.87;;;;;;;-2.27;97.29;101248.97;4945527;28;20225;-73
2022/12/16 01:36:11;;;;;;;42.57;25.80;;;;;;;-2.29;97.51;101250.50;4948755;28;20211;-73
2022/12/16 01:38:37;;;;;;;47.27;26.87;;;;;;;-2.29;97.52;101256.34;4951363;28;20686;-71
2022/12/16 01:41:03;;;;;;;45.73;25.33;;;;;;;-2.27;97.47;101254.84;4950655;28;20197;-73
2022/12/16 01:43:33;;;;;;;41.47;25.37;;;;;;;-2.28;97.45;101264.75;4951543;28;20202;-71
2022/12/16 01:46:07;;;;;;;43.73;25.90;;;;;;;-2.31;97.10;101255.38;4949653;28;20197;-72
2022/12/16 01:48:53;;;;;;;38.60;25.10;;;;;;;-2.30;96.81;101266.28;4944699;28;20288;-72
2022/12/16 01:51:41;;;;;;;46.10;26.33;;;;;;;-2.30;97.25;101263.78;4948762;28;20539;-72
2022/12/16 01:54:13;;;;;;;46.20;25.83;;;;;;;-2.29;97.11;101263.03;4927703;29;20483;-73
2022/12/16 01:56:42;;;;;;;47.17;26.90;;;;;;;-2.28;96.94;101268.16;4945742;28;20478;-72
2022/12/16 01:59:09;;;;;;;41.97;25.63;;;;;;;-2.29;96.78;101260.50;4942936;28;20563;-72
2022/12/16 02:01:35;;;;;;;41.67;25.07;;;;;;;-2.33;96.81;101261.91;4942794;28;20670;-72
2022/12/16 02:04:02;;;;;;;40.27;25.60;;;;;;;-2.35;96.57;101260.06;4939373;28;20197;-72
2022/12/16 02:06:29;;;;;;;43.03;25.47;;;;;;;-2.34;97.20;101262.66;4943747;28;20185;-72
2022/12/16 02:08:59;;;;;;;46.70;26.73;;;;;;;-2.35;96.68;101260.91;4939664;28;20205;-71
2022/12/16 02:11:47;;;;;;;40.53;25.20;;;;;;;-2.38;96.93;101267.34;4942195;28;20957;-72
2022/12/16 02:14:37;;;;;;;41.43;25.17;;;;;;;-2.37;97.06;101264.06;4947558;28;20236;-72
2022/12/16 02:17:07;;;;;;;42.30;24.43;;;;;;;-2.42;97.17;101263.72;4947914;28;20529;-70
2022/12/16 02:19:42;;;;;;;45.33;24.57;;;;;;;-2.41;96.55;101267.97;4943960;28;20181;-69
2022/12/16 02:22:43;;;;;;;40.57;24.50;;;;;;;-2.45;96.82;101265.97;4944383;28;20448;-72
2022/12/16 02:25:33;;;;;;;43.93;25.70;;;;;;;-2.42;96.76;101263.72;4946457;28;20845;-72
2022/12/16 02:28:18;;;;;;;40.20;23.97;;;;;;;-2.46;96.43;101261.75;4948096;28;20465;-73
2022/12/16 02:31:23;;;;;;;38.83;24.10;;;;;;;-2.47;96.25;101267.50;4949215;28;20448;-72
2022/12/16 02:34:07;;;;;;;41.50;25.03;;;;;;;-2.53;96.07;101264.50;4949879;28;20883;-71
2022/12/16 02:36:53;;;;;;;43.23;25.27;;;;;;;-2.51;96.34;101264.63;4979329;23;21060;-72
2022/12/16 02:39:28;;;;;;;39.90;24.10;;;;;;;-2.48;96.12;101265.75;4977190;28;20463;-73
2022/12/16 02:41:56;;;;;;;41.33;24.73;;;;;;;-2.53;96.06;101261.16;4975547;28;20544;-71
2022/12/16 02:44:49;;;;;;;37.33;23.83;;;;;;;-2.59;95.94;101265.66;4980186;28;20481;-73
2022/12/16 02:47:14;;;;;;;41.50;24.50;;;;;;;-2.58;96.00;101268.31;4971275;28;21006;-72
2022/12/16 02:49:47;;;;;;;41.73;25.10;;;;;;;-2.63;96.23;101266.19;4963313;28;20447;-71
2022/12/16 02:52:13;;;;;;;45.30;25.73;;;;;;;-2.59;95.80;101270.69;4965044;28;20259;-71
2022/12/16 02:54:38;;;;;;;40.83;23.87;;;;;;;-2.59;95.64;101270.69;4960140;28;20481;-70
2022/12/16 02:57:30;;;;;;;39.50;24.27;;;;;;;-2.59;95.75;101269.06;4945150;28;20488;-73
2022/12/16 03:00:04;;;;;;;39.83;23.90;;;;;;;-2.63;95.57;101269.56;4917587;28;20204;-73
2022/12/16 03:02:35;;;;;;;42.23;25.20;;;;;;;-2.62;95.36;101278.84;4961867;28;20452;-73
2022/12/16 03:05:09;;;;;;;39.77;24.13;;;;;;;-2.67;95.16;101274.25;4962468;28;20453;-74
2022/12/16 03:07:38;;;;;;;38.23;23.77;;;;;;;-2.77;95.25;101279.28;4962463;28;20213;-73
2022/12/16 03:10:07;;;;;;;39.33;24.83;;;;;;;-2.74;95.61;101287.03;4965451;28;20478;-70
2022/12/16 03:12:34;;;;;;;40.43;24.73;;;;;;;-2.76;95.37;101283.56;4969011;28;20539;-71
2022/12/16 03:15:01;;;;;;;43.97;24.97;;;;;;;-2.79;95.48;101283.31;4966320;28;20496;-73
2022/12/16 03:17:28;;;;;;;41.30;25.40;;;;;;;-2.72;95.55;101276.38;4964643;28;20487;-71
2022/12/16 03:20:11;;;;;;;41.37;25.07;;;;;;;-2.71;95.57;101280.63;4969020;28;20535;-70
2022/12/16 03:22:39;;;;;;;37.67;23.03;;;;;;;-2.70;95.54;101279.00;4964376;28;20456;-73
2022/12/16 03:25:06;;;;;;;45.20;24.17;;;;;;;-2.73;95.45;101279.66;4968450;28;20208;-73
2022/12/16 03:27:39;;;;;;;42.50;23.83;;;;;;;-2.83;95.19;101286.31;4966018;28;20533;-72
2022/12/16 03:30:10;;;;;;;39.97;23.60;;;;;;;-2.76;95.68;101289.41;4960614;28;20443;-71
2022/12/16 03:32:38;;;;;;;43.37;24.80;;;;;;;-2.73;95.62;101284.66;4954094;28;20476;-70
2022/12/16 03:35:18;;;;;;;39.13;24.23;;;;;;;-2.82;95.27;101288.94;4964899;28;20476;-71
2022/12/16 03:37:46;;;;;;;40.47;23.80;;;;;;;-2.82;95.30;101286.44;4960479;28;20514;-70
2022/12/16 03:40:13;;;;;;;40.03;25.00;;;;;;;-2.88;95.28;101282.56;4962647;28;20444;-71
2022/12/16 03:42:41;;;;;;;40.33;24.33;;;;;;;-2.86;95.22;101284.44;4962614;28;20887;-73
2022/12/16 03:45:10;;;;;;;41.77;24.37;;;;;;;-2.82;95.23;101283.94;4964228;28;20792;-70
2022/12/16 03:47:36;;;;;;;39.17;22.77;;;;;;;-2.84;94.57;101287.97;4965725;28;20476;-71
2022/12/16 03:50:02;;;;;;;39.20;24.37;;;;;;;-2.85;94.57;101280.31;4949829;28;21164;-74
2022/12/16 03:52:27;;;;;;;40.17;24.97;;;;;;;-2.86;95.06;101293.56;4968091;28;20447;-70
2022/12/16 03:54:53;;;;;;;40.47;24.23;;;;;;;-2.91;95.18;101293.22;4964569;28;20220;-70
2022/12/16 03:57:18;;;;;;;37.03;23.07;;;;;;;-2.98;94.88;101292.63;4963760;28;20242;-69
2022/12/16 03:59:43;;;;;;;38.77;23.20;;;;;;;-2.92;94.92;101288.09;4964168;28;20276;-71
2022/12/16 04:02:09;;;;;;;38.90;24.10;;;;;;;-2.91;94.87;101297.34;4950243;28;20216;-74
2022/12/16 04:04:34;;;;;;;40.77;24.20;;;;;;;-2.90;95.04;101299.97;4963928;28;20601;-74
2022/12/16 04:09:43;;;;;;;40.33;24.47;;;;;;;-2.99;95.21;101300.91;4968487;28;20196;-72
2022/12/16 04:25:55;;;;;;;40.60;23.30;;;;;;;-3.19;95.21;101321.84;4964891;28;20456;-73
2022/12/16 04:28:20;;;;;;;42.40;25.03;;;;;;;-3.18;95.47;101317.72;4961691;28;20482;-73
2022/12/16 04:30:45;;;;;;;40.70;24.43;;;;;;;-3.22;95.54;101311.56;4961025;28;20199;-70
